TAF KELY
KELY 270520Z 2706/2806 18008KT P6SM SCT120 BKN200=
METAR KELY
WC KELY
WS KELY
WV KELY